Terminal Aerodrome Forecast
Issued by NWS

Home | Current Version | Previous Version | Text Only | Print | Product List | Glossary On
Versions: 1 2 3 4 5 6 7 8 9 10 11 12 13 14 15 16 17
840
FTUS43 KEAX 092321
TAFSTJ
TAF
KSTJ 092321Z 1000/1024 33013G23KT P6SM SCT250
     FM100200 32008KT P6SM FEW150
     FM101300 16008KT P6SM SCT030 BKN050=

USA.gov is the U.S. government's official web portal to all federal, state and local government web resources and services.